EWG7DK LEPA-LSZH
Flight info
| Callsign | EWG7DK |
|---|---|
| Flight time | 1h 26m |
| Altitude | 34000 |
| Route | MEROS DCT LAPIT DCT CHELY DCT LUMAS DCT MAXIR DCT LUSOL DCT BODRU DCT OKTET DCT IRMAR DCT KINES DCT VANAS DCT MOBLO DCT LAMUR DCT KORED N871 BERSU |
| Aircraft | A321/M-SDE3FGHIRWY/LB1 |
Departure
| Time | 2026-05-01 07:50 |
|---|---|
| Airport | Palma de Mallorca Airport (LEPA) |
Arrival
| Time | 2026-05-01 09:17 |
|---|---|
| Airport | Zürich Airport (LSZH) |
| Time | Latitude | Longitude | Altitude | Speed | Heading |
|---|---|---|---|---|---|
| 2026-05-01 07:23 | 39.55047 | 2.73535 | 38 ft | 0 kts | 165° |
| 2026-05-01 07:42 | 39.55052 | 2.73533 | 38 ft | 4 kts | 162° |
| 2026-05-01 07:43 | 39.55075 | 2.73518 | 38 ft | 4 kts | 129° |
| 2026-05-01 07:43 | 39.55083 | 2.73492 | 38 ft | 4 kts | 68° |
| 2026-05-01 07:43 | 39.55080 | 2.73485 | 38 ft | 0 kts | 59° |
| 2026-05-01 07:44 | 39.55082 | 2.73488 | 38 ft | 2 kts | 59° |
| 2026-05-01 07:45 | 39.55109 | 2.73547 | 38 ft | 10 kts | 59° |
| 2026-05-01 07:45 | 39.55152 | 2.73638 | 38 ft | 14 kts | 59° |
| 2026-05-01 07:45 | 39.55169 | 2.73753 | 38 ft | 14 kts | 111° |
| 2026-05-01 07:45 | 39.55165 | 2.73858 | 38 ft | 12 kts | 137° |
| 2026-05-01 07:46 | 39.55089 | 2.73919 | 38 ft | 13 kts | 149° |
| 2026-05-01 07:46 | 39.55008 | 2.73982 | 38 ft | 14 kts | 148° |
| 2026-05-01 07:46 | 39.54808 | 2.74123 | 38 ft | 14 kts | 185° |
| 2026-05-01 07:47 | 39.54739 | 2.74021 | 37 ft | 18 kts | 238° |
| 2026-05-01 07:47 | 39.54670 | 2.73876 | 38 ft | 19 kts | 239° |
| 2026-05-01 07:47 | 39.54599 | 2.73726 | 36 ft | 20 kts | 238° |
| 2026-05-01 07:47 | 39.54526 | 2.73572 | 37 ft | 20 kts | 238° |
| 2026-05-01 07:48 | 39.54375 | 2.73252 | 38 ft | 21 kts | 238° |
| 2026-05-01 07:48 | 39.54300 | 2.73169 | 38 ft | 13 kts | 165° |
| 2026-05-01 07:48 | 39.54267 | 2.73300 | 38 ft | 21 kts | 89° |
| 2026-05-01 07:49 | 39.54270 | 2.73466 | 38 ft | 14 kts | 81° |
| 2026-05-01 07:49 | 39.54299 | 2.73535 | 38 ft | 0 kts | 58° |
| 2026-05-01 07:49 | 39.54324 | 2.73587 | 38 ft | 26 kts | 58° |
| 2026-05-01 07:50 | 39.54575 | 2.74119 | 39 ft | 109 kts | 58° |
| 2026-05-01 07:50 | 39.55631 | 2.76376 | 1114 ft | 155 kts | 60° |
| 2026-05-01 07:50 | 39.56199 | 2.77645 | 1684 ft | 171 kts | 59° |
| 2026-05-01 07:51 | 39.56844 | 2.79055 | 1888 ft | 192 kts | 59° |
| 2026-05-01 07:51 | 39.57556 | 2.80608 | 2225 ft | 205 kts | 59° |
| 2026-05-01 07:51 | 39.58286 | 2.82210 | 2727 ft | 208 kts | 59° |
| 2026-05-01 07:52 | 39.59768 | 2.85466 | 3965 ft | 212 kts | 60° |
| 2026-05-01 07:52 | 39.60529 | 2.87129 | 4590 ft | 216 kts | 60° |
| 2026-05-01 07:52 | 39.61302 | 2.88815 | 5205 ft | 219 kts | 61° |
| 2026-05-01 07:53 | 39.62891 | 2.92340 | 6119 ft | 245 kts | 62° |
| 2026-05-01 07:53 | 39.63766 | 2.94364 | 6343 ft | 265 kts | 62° |
| 2026-05-01 07:53 | 39.64674 | 2.96476 | 6919 ft | 270 kts | 62° |
| 2026-05-01 07:53 | 39.65595 | 2.98616 | 7494 ft | 274 kts | 62° |
| 2026-05-01 07:54 | 39.67497 | 3.03004 | 8647 ft | 284 kts | 62° |
| 2026-05-01 07:55 | 39.70458 | 3.09855 | 10330 ft | 299 kts | 62° |
| 2026-05-01 07:55 | 39.72628 | 3.14892 | 10594 ft | 339 kts | 62° |
| 2026-05-01 07:56 | 39.76285 | 3.23390 | 11548 ft | 370 kts | 61° |
| 2026-05-01 07:56 | 39.79276 | 3.28858 | 12634 ft | 374 kts | 48° |
| 2026-05-01 07:57 | 39.80995 | 3.31417 | 13202 ft | 376 kts | 48° |
| 2026-05-01 07:57 | 39.84450 | 3.36600 | 14231 ft | 382 kts | 47° |
| 2026-05-01 07:58 | 39.87955 | 3.41882 | 15159 ft | 387 kts | 47° |
| 2026-05-01 07:58 | 39.91500 | 3.47223 | 16090 ft | 393 kts | 48° |
| 2026-05-01 07:59 | 39.95101 | 3.52638 | 17025 ft | 398 kts | 48° |
| 2026-05-01 07:59 | 39.98743 | 3.58138 | 17910 ft | 403 kts | 48° |
| 2026-05-01 08:00 | 40.06133 | 3.69330 | 19447 ft | 413 kts | 48° |
| 2026-05-01 08:01 | 40.11791 | 3.77940 | 20548 ft | 419 kts | 48° |
| 2026-05-01 08:01 | 40.13692 | 3.80838 | 20909 ft | 422 kts | 48° |
| 2026-05-01 08:01 | 40.15605 | 3.83751 | 21287 ft | 423 kts | 48° |
| 2026-05-01 08:02 | 40.19447 | 3.89623 | 22014 ft | 427 kts | 48° |
| 2026-05-01 08:02 | 40.21386 | 3.92585 | 22370 ft | 430 kts | 48° |
| 2026-05-01 08:03 | 40.25290 | 3.98546 | 23078 ft | 434 kts | 48° |
| 2026-05-01 08:03 | 40.27253 | 4.01553 | 23429 ft | 436 kts | 48° |
| 2026-05-01 08:03 | 40.31204 | 4.07629 | 24021 ft | 440 kts | 48° |
| 2026-05-01 08:04 | 40.35190 | 4.13769 | 24575 ft | 444 kts | 48° |
| 2026-05-01 08:04 | 40.39213 | 4.19966 | 25112 ft | 448 kts | 48° |
| 2026-05-01 08:05 | 40.43269 | 4.26226 | 25661 ft | 452 kts | 48° |
| 2026-05-01 08:05 | 40.45306 | 4.29383 | 25926 ft | 454 kts | 48° |
| 2026-05-01 08:05 | 40.47489 | 4.32376 | 26182 ft | 454 kts | 39° |
| 2026-05-01 08:06 | 40.52806 | 4.36744 | 26676 ft | 452 kts | 20° |
| 2026-05-01 08:06 | 40.58885 | 4.38774 | 27166 ft | 452 kts | 8° |
| 2026-05-01 08:07 | 40.65102 | 4.40259 | 27656 ft | 456 kts | 8° |
| 2026-05-01 08:07 | 40.71371 | 4.41764 | 28125 ft | 459 kts | 8° |
| 2026-05-01 08:08 | 40.74520 | 4.42519 | 28343 ft | 461 kts | 8° |
| 2026-05-01 08:08 | 40.80856 | 4.44044 | 28753 ft | 464 kts | 8° |
| 2026-05-01 08:09 | 40.87236 | 4.45579 | 29163 ft | 467 kts | 8° |
| 2026-05-01 08:09 | 40.90438 | 4.46350 | 29385 ft | 468 kts | 8° |
| 2026-05-01 08:09 | 40.93636 | 4.47122 | 29661 ft | 467 kts | 8° |
| 2026-05-01 08:10 | 41.00026 | 4.48678 | 30177 ft | 466 kts | 8° |
| 2026-05-01 08:10 | 41.06403 | 4.50234 | 30645 ft | 465 kts | 8° |
| 2026-05-01 08:11 | 41.12744 | 4.51783 | 31156 ft | 462 kts | 8° |
| 2026-05-01 08:11 | 41.19066 | 4.53321 | 31589 ft | 461 kts | 8° |
| 2026-05-01 08:12 | 41.25336 | 4.54852 | 32019 ft | 461 kts | 7° |
| 2026-05-01 08:12 | 41.28485 | 4.55621 | 32265 ft | 460 kts | 7° |
| 2026-05-01 08:12 | 41.34755 | 4.57157 | 32737 ft | 457 kts | 7° |
| 2026-05-01 08:13 | 41.37878 | 4.57926 | 32961 ft | 456 kts | 7° |
| 2026-05-01 08:13 | 41.40992 | 4.58689 | 33214 ft | 454 kts | 7° |
| 2026-05-01 08:13 | 41.47198 | 4.60208 | 33670 ft | 453 kts | 7° |
| 2026-05-01 08:14 | 41.50283 | 4.60964 | 33896 ft | 450 kts | 7° |
| 2026-05-01 08:14 | 41.53358 | 4.61726 | 34085 ft | 448 kts | 7° |
| 2026-05-01 08:14 | 41.56431 | 4.62482 | 34208 ft | 449 kts | 7° |
| 2026-05-01 08:14 | 41.59498 | 4.63241 | 34226 ft | 448 kts | 7° |
| 2026-05-01 08:15 | 41.68668 | 4.65518 | 34250 ft | 447 kts | 7° |
| 2026-05-01 08:16 | 41.73659 | 4.67302 | 34241 ft | 450 kts | 19° |
| 2026-05-01 08:16 | 41.79172 | 4.71360 | 34239 ft | 454 kts | 27° |
| 2026-05-01 08:17 | 41.85502 | 4.76445 | 34248 ft | 454 kts | 27° |
| 2026-05-01 08:17 | 41.90008 | 4.80066 | 34259 ft | 454 kts | 27° |
| 2026-05-01 08:18 | 41.95431 | 4.84439 | 34266 ft | 455 kts | 27° |
| 2026-05-01 08:19 | 42.06240 | 4.93193 | 34271 ft | 455 kts | 27° |
| 2026-05-01 08:19 | 42.11668 | 4.97596 | 34284 ft | 455 kts | 27° |
| 2026-05-01 08:20 | 42.17089 | 5.02001 | 34282 ft | 455 kts | 27° |
| 2026-05-01 08:20 | 42.22504 | 5.06412 | 34285 ft | 454 kts | 27° |
| 2026-05-01 08:21 | 42.27916 | 5.10827 | 34281 ft | 455 kts | 27° |
| 2026-05-01 08:21 | 42.33324 | 5.15257 | 34291 ft | 454 kts | 27° |
| 2026-05-01 08:22 | 42.38728 | 5.19694 | 34291 ft | 454 kts | 28° |
| 2026-05-01 08:22 | 42.44128 | 5.24130 | 34291 ft | 454 kts | 27° |
| 2026-05-01 08:23 | 42.49529 | 5.28566 | 34302 ft | 454 kts | 28° |
| 2026-05-01 08:23 | 42.54928 | 5.33021 | 34297 ft | 454 kts | 28° |
| 2026-05-01 08:24 | 42.60318 | 5.37485 | 34309 ft | 453 kts | 28° |
| 2026-05-01 08:24 | 42.65659 | 5.41915 | 34308 ft | 453 kts | 28° |
| 2026-05-01 08:25 | 42.71035 | 5.46372 | 34305 ft | 452 kts | 28° |
| 2026-05-01 08:25 | 42.76402 | 5.50835 | 34307 ft | 452 kts | 28° |
| 2026-05-01 08:26 | 42.81768 | 5.55308 | 34306 ft | 452 kts | 28° |
| 2026-05-01 08:26 | 42.87138 | 5.59787 | 34306 ft | 453 kts | 28° |
| 2026-05-01 08:27 | 42.92511 | 5.64272 | 34310 ft | 453 kts | 28° |
| 2026-05-01 08:27 | 42.97872 | 5.68774 | 34313 ft | 452 kts | 28° |
| 2026-05-01 08:28 | 43.03222 | 5.73278 | 34319 ft | 452 kts | 28° |
| 2026-05-01 08:28 | 43.08570 | 5.77779 | 34317 ft | 451 kts | 28° |
| 2026-05-01 08:29 | 43.13912 | 5.82289 | 34322 ft | 451 kts | 28° |
| 2026-05-01 08:29 | 43.19252 | 5.86804 | 34320 ft | 451 kts | 28° |
| 2026-05-01 08:30 | 43.24599 | 5.91319 | 34319 ft | 451 kts | 28° |
| 2026-05-01 08:30 | 43.29933 | 5.95856 | 34326 ft | 452 kts | 28° |
| 2026-05-01 08:31 | 43.35266 | 6.00418 | 34326 ft | 451 kts | 28° |
| 2026-05-01 08:31 | 43.40922 | 6.03764 | 34326 ft | 443 kts | 10° |
| 2026-05-01 08:32 | 43.46982 | 6.04797 | 34325 ft | 438 kts | 1° |
| 2026-05-01 08:32 | 43.53068 | 6.05399 | 34327 ft | 438 kts | 1° |
| 2026-05-01 08:33 | 43.59154 | 6.06029 | 34330 ft | 439 kts | 1° |
| 2026-05-01 08:33 | 43.65239 | 6.06657 | 34331 ft | 438 kts | 1° |
| 2026-05-01 08:34 | 43.71321 | 6.07266 | 34340 ft | 438 kts | 1° |
| 2026-05-01 08:34 | 43.77361 | 6.08431 | 34349 ft | 442 kts | 13° |
| 2026-05-01 08:35 | 43.83021 | 6.11841 | 34353 ft | 445 kts | 23° |
| 2026-05-01 08:35 | 43.88563 | 6.15622 | 34350 ft | 443 kts | 22° |
| 2026-05-01 08:36 | 43.94093 | 6.19390 | 34351 ft | 442 kts | 23° |
| 2026-05-01 08:36 | 43.99616 | 6.23165 | 34342 ft | 442 kts | 23° |
| 2026-05-01 08:37 | 44.05130 | 6.26946 | 34339 ft | 442 kts | 23° |
| 2026-05-01 08:37 | 44.10649 | 6.30738 | 34332 ft | 443 kts | 23° |
| 2026-05-01 08:38 | 44.16182 | 6.34554 | 34329 ft | 444 kts | 23° |
| 2026-05-01 08:38 | 44.21682 | 6.38345 | 34331 ft | 444 kts | 23° |
| 2026-05-01 08:39 | 44.27223 | 6.42161 | 34343 ft | 444 kts | 24° |
| 2026-05-01 08:39 | 44.32763 | 6.45997 | 34344 ft | 445 kts | 24° |
| 2026-05-01 08:40 | 44.41073 | 6.51777 | 34341 ft | 444 kts | 25° |
| 2026-05-01 08:40 | 44.46599 | 6.55629 | 34342 ft | 444 kts | 26° |
| 2026-05-01 08:41 | 44.52130 | 6.59496 | 34327 ft | 444 kts | 26° |
| 2026-05-01 08:41 | 44.57670 | 6.63360 | 34326 ft | 445 kts | 26° |
| 2026-05-01 08:42 | 44.63209 | 6.67237 | 34333 ft | 445 kts | 26° |
| 2026-05-01 08:42 | 44.68749 | 6.71126 | 34336 ft | 445 kts | 26° |
| 2026-05-01 08:43 | 44.74288 | 6.75018 | 34350 ft | 445 kts | 26° |
| 2026-05-01 08:43 | 44.80047 | 6.78120 | 34334 ft | 444 kts | 11° |
| 2026-05-01 08:44 | 44.86200 | 6.78628 | 34321 ft | 445 kts | 357° |
| 2026-05-01 08:44 | 44.92396 | 6.78220 | 34322 ft | 447 kts | 358° |
| 2026-05-01 08:45 | 44.98615 | 6.77835 | 34328 ft | 448 kts | 357° |
| 2026-05-01 08:45 | 45.04839 | 6.77426 | 34337 ft | 448 kts | 358° |
| 2026-05-01 08:46 | 45.11029 | 6.77006 | 34332 ft | 449 kts | 358° |
| 2026-05-01 08:46 | 45.17269 | 6.76586 | 34325 ft | 449 kts | 358° |
| 2026-05-01 08:47 | 45.23511 | 6.76175 | 34324 ft | 449 kts | 358° |
| 2026-05-01 08:47 | 45.29754 | 6.75757 | 34321 ft | 449 kts | 358° |
| 2026-05-01 08:48 | 45.36000 | 6.75336 | 34319 ft | 450 kts | 358° |
| 2026-05-01 08:48 | 45.42251 | 6.74915 | 34321 ft | 450 kts | 358° |
| 2026-05-01 08:49 | 45.48502 | 6.74498 | 34323 ft | 450 kts | 358° |
| 2026-05-01 08:49 | 45.54751 | 6.74078 | 34322 ft | 449 kts | 358° |
| 2026-05-01 08:50 | 45.61005 | 6.73652 | 34325 ft | 450 kts | 358° |
| 2026-05-01 08:50 | 45.67252 | 6.73217 | 34318 ft | 450 kts | 358° |
| 2026-05-01 08:51 | 45.73502 | 6.72784 | 34321 ft | 449 kts | 358° |
| 2026-05-01 08:51 | 45.79729 | 6.72810 | 34324 ft | 447 kts | 9° |
| 2026-05-01 08:52 | 45.85652 | 6.75311 | 34312 ft | 443 kts | 26° |
| 2026-05-01 08:52 | 45.91232 | 6.78953 | 34315 ft | 444 kts | 26° |
| 2026-05-01 08:53 | 45.96858 | 6.82626 | 34323 ft | 445 kts | 26° |
| 2026-05-01 08:53 | 46.02487 | 6.86319 | 34319 ft | 445 kts | 25° |
| 2026-05-01 08:54 | 46.08119 | 6.90019 | 34327 ft | 445 kts | 25° |
| 2026-05-01 08:54 | 46.13751 | 6.93721 | 34344 ft | 445 kts | 25° |
| 2026-05-01 08:55 | 46.19381 | 6.97435 | 34337 ft | 445 kts | 25° |
| 2026-05-01 08:55 | 46.24997 | 7.01147 | 34337 ft | 443 kts | 25° |
| 2026-05-01 08:56 | 46.30603 | 7.04868 | 34352 ft | 443 kts | 25° |
| 2026-05-01 08:56 | 46.36207 | 7.08596 | 34322 ft | 443 kts | 25° |
| 2026-05-01 08:57 | 46.39009 | 7.10456 | 34071 ft | 442 kts | 25° |
| 2026-05-01 08:57 | 46.41800 | 7.12308 | 33803 ft | 441 kts | 25° |
| 2026-05-01 08:57 | 46.44583 | 7.14162 | 33534 ft | 441 kts | 26° |
| 2026-05-01 08:57 | 46.47372 | 7.16026 | 33264 ft | 441 kts | 26° |
| 2026-05-01 08:58 | 46.50156 | 7.17893 | 32999 ft | 441 kts | 26° |
| 2026-05-01 08:58 | 46.52944 | 7.19764 | 32744 ft | 442 kts | 26° |
| 2026-05-01 08:58 | 46.55735 | 7.21637 | 32478 ft | 442 kts | 26° |
| 2026-05-01 08:58 | 46.58527 | 7.23510 | 31968 ft | 443 kts | 26° |
| 2026-05-01 08:59 | 46.61337 | 7.25400 | 31128 ft | 446 kts | 26° |
| 2026-05-01 08:59 | 46.64130 | 7.27280 | 30647 ft | 439 kts | 26° |
| 2026-05-01 08:59 | 46.66893 | 7.29138 | 30055 ft | 435 kts | 26° |
| 2026-05-01 08:59 | 46.69625 | 7.30976 | 29516 ft | 429 kts | 26° |
| 2026-05-01 09:00 | 46.72315 | 7.32788 | 28982 ft | 423 kts | 26° |
| 2026-05-01 09:00 | 46.74938 | 7.34554 | 28453 ft | 418 kts | 26° |
| 2026-05-01 09:00 | 46.77556 | 7.36320 | 27933 ft | 412 kts | 26° |
| 2026-05-01 09:00 | 46.80099 | 7.38219 | 27064 ft | 413 kts | 32° |
| 2026-05-01 09:01 | 46.82581 | 7.40422 | 25959 ft | 422 kts | 33° |
| 2026-05-01 09:01 | 46.85094 | 7.42730 | 24960 ft | 429 kts | 33° |
| 2026-05-01 09:01 | 46.87575 | 7.45049 | 24254 ft | 419 kts | 34° |
| 2026-05-01 09:01 | 46.90002 | 7.47331 | 23218 ft | 409 kts | 34° |
| 2026-05-01 09:02 | 46.92377 | 7.49560 | 21844 ft | 403 kts | 34° |
| 2026-05-01 09:02 | 46.94719 | 7.51743 | 20587 ft | 396 kts | 34° |
| 2026-05-01 09:02 | 46.96989 | 7.53844 | 20093 ft | 371 kts | 34° |
| 2026-05-01 09:02 | 46.99089 | 7.55784 | 19811 ft | 345 kts | 34° |
| 2026-05-01 09:03 | 47.01099 | 7.57647 | 19410 ft | 346 kts | 34° |
| 2026-05-01 09:03 | 47.03128 | 7.59532 | 18995 ft | 347 kts | 34° |
| 2026-05-01 09:03 | 47.05165 | 7.61427 | 18558 ft | 345 kts | 34° |
| 2026-05-01 09:03 | 47.07185 | 7.63309 | 18078 ft | 343 kts | 34° |
| 2026-05-01 09:04 | 47.09192 | 7.65177 | 17654 ft | 341 kts | 34° |
| 2026-05-01 09:04 | 47.11187 | 7.67037 | 17214 ft | 338 kts | 34° |
| 2026-05-01 09:04 | 47.13165 | 7.68884 | 16784 ft | 336 kts | 34° |
| 2026-05-01 09:04 | 47.15134 | 7.70724 | 16352 ft | 334 kts | 34° |
| 2026-05-01 09:05 | 47.17090 | 7.72552 | 15905 ft | 332 kts | 34° |
| 2026-05-01 09:05 | 47.19035 | 7.74372 | 15480 ft | 330 kts | 34° |
| 2026-05-01 09:05 | 47.20966 | 7.76182 | 15052 ft | 328 kts | 34° |
| 2026-05-01 09:05 | 47.22880 | 7.77980 | 14628 ft | 325 kts | 34° |
| 2026-05-01 09:06 | 47.24785 | 7.79766 | 14202 ft | 324 kts | 34° |
| 2026-05-01 09:06 | 47.26676 | 7.81541 | 13747 ft | 321 kts | 34° |
| 2026-05-01 09:06 | 47.28544 | 7.83337 | 13202 ft | 321 kts | 39° |
| 2026-05-01 09:06 | 47.30131 | 7.85682 | 12438 ft | 325 kts | 50° |
| 2026-05-01 09:07 | 47.31614 | 7.88170 | 11997 ft | 321 kts | 50° |
| 2026-05-01 09:07 | 47.33082 | 7.90622 | 11556 ft | 317 kts | 50° |
| 2026-05-01 09:07 | 47.34532 | 7.93044 | 11127 ft | 313 kts | 50° |
| 2026-05-01 09:07 | 47.35481 | 7.94631 | 10884 ft | 310 kts | 50° |
| 2026-05-01 09:08 | 47.36876 | 7.96968 | 10771 ft | 296 kts | 50° |
| 2026-05-01 09:08 | 47.38218 | 7.99217 | 10552 ft | 288 kts | 50° |
| 2026-05-01 09:08 | 47.39528 | 8.01410 | 10501 ft | 286 kts | 50° |
| 2026-05-01 09:08 | 47.40839 | 8.03620 | 10427 ft | 286 kts | 50° |
| 2026-05-01 09:09 | 47.42146 | 8.05832 | 10293 ft | 287 kts | 50° |
| 2026-05-01 09:09 | 47.43467 | 8.08070 | 9770 ft | 289 kts | 50° |
| 2026-05-01 09:09 | 47.45226 | 8.11042 | 9252 ft | 287 kts | 50° |
| 2026-05-01 09:09 | 47.46103 | 8.12526 | 8757 ft | 293 kts | 50° |
| 2026-05-01 09:10 | 47.47436 | 8.14775 | 7990 ft | 291 kts | 49° |
| 2026-05-01 09:10 | 47.48752 | 8.16991 | 7383 ft | 282 kts | 49° |
| 2026-05-01 09:10 | 47.50003 | 8.19103 | 6991 ft | 268 kts | 49° |
| 2026-05-01 09:10 | 47.51235 | 8.21193 | 6228 ft | 271 kts | 49° |
| 2026-05-01 09:11 | 47.52488 | 8.23322 | 5358 ft | 277 kts | 50° |
| 2026-05-01 09:11 | 47.53759 | 8.25482 | 4493 ft | 279 kts | 50° |
| 2026-05-01 09:11 | 47.55009 | 8.27610 | 4105 ft | 264 kts | 50° |
| 2026-05-01 09:11 | 47.56157 | 8.29561 | 3997 ft | 243 kts | 50° |
| 2026-05-01 09:12 | 47.57242 | 8.31405 | 3995 ft | 235 kts | 50° |
| 2026-05-01 09:12 | 47.58148 | 8.33328 | 4012 ft | 223 kts | 65° |
| 2026-05-01 09:12 | 47.58580 | 8.35484 | 3994 ft | 217 kts | 84° |
| 2026-05-01 09:12 | 47.58533 | 8.37649 | 4002 ft | 201 kts | 102° |
| 2026-05-01 09:13 | 47.58102 | 8.39490 | 3984 ft | 184 kts | 118° |
| 2026-05-01 09:13 | 47.57409 | 8.40972 | 3868 ft | 169 kts | 133° |
| 2026-05-01 09:13 | 47.56594 | 8.42114 | 3686 ft | 155 kts | 137° |
| 2026-05-01 09:13 | 47.55816 | 8.43187 | 3503 ft | 151 kts | 137° |
| 2026-05-01 09:14 | 47.55050 | 8.44237 | 3313 ft | 149 kts | 136° |
| 2026-05-01 09:14 | 47.54290 | 8.45280 | 3113 ft | 148 kts | 135° |
| 2026-05-01 09:14 | 47.53537 | 8.46313 | 2913 ft | 147 kts | 135° |
| 2026-05-01 09:14 | 47.52781 | 8.47341 | 2738 ft | 148 kts | 135° |
| 2026-05-01 09:15 | 47.52030 | 8.48383 | 2503 ft | 148 kts | 134° |
| 2026-05-01 09:15 | 47.51277 | 8.49409 | 2295 ft | 148 kts | 134° |
| 2026-05-01 09:15 | 47.50523 | 8.50448 | 2088 ft | 148 kts | 135° |
| 2026-05-01 09:15 | 47.49765 | 8.51476 | 1881 ft | 148 kts | 135° |
| 2026-05-01 09:16 | 47.49016 | 8.52508 | 1688 ft | 146 kts | 137° |
| 2026-05-01 09:16 | 47.48271 | 8.53522 | 1457 ft | 144 kts | 137° |
| 2026-05-01 09:16 | 47.47575 | 8.54474 | 1403 ft | 123 kts | 137° |
| 2026-05-01 09:17 | 47.46776 | 8.55559 | 1402 ft | 42 kts | 141° |
| 2026-05-01 09:17 | 47.46570 | 8.55688 | 1405 ft | 26 kts | 167° |
| 2026-05-01 09:17 | 47.46299 | 8.55871 | 1406 ft | 20 kts | 137° |
| 2026-05-01 09:18 | 47.46197 | 8.56011 | 1401 ft | 20 kts | 137° |
| 2026-05-01 09:18 | 47.46000 | 8.56280 | 1407 ft | 17 kts | 137° |
| 2026-05-01 09:19 | 47.45757 | 8.56286 | 1399 ft | 21 kts | 186° |
| 2026-05-01 09:19 | 47.45620 | 8.56265 | 1397 ft | 17 kts | 186° |
| 2026-05-01 09:19 | 47.45504 | 8.56242 | 1404 ft | 16 kts | 199° |
| 2026-05-01 09:20 | 47.45489 | 8.55974 | 1397 ft | 7 kts | 258° |
| 2026-05-01 09:20 | 47.45416 | 8.55947 | 1405 ft | 2 kts | 186° |
| 2026-05-01 09:21 | 47.45412 | 8.55946 | 1397 ft | 0 kts | 186° |